Avola, Canada
Current Conditions -  °F | °C
As of 5:00 PM on Saturday 25 Oct 2014 (Local Time) from CYRV Reporting Station
Light Rain Light Rain  
Wind Chill: 43°   Ceiling: 1600
Heat Index: 43°   Visibility: 9mi
Dew Point: 41°   Wind: 3mph
Humidity: 93%   Direction: 310°NW
Pressure: 29.59"   Gusts: NA
Location:  51.78°N, 119.32°W
Report Text: CYRV 260000Z AUTO 31003KT 9SM -RA SCT006 OVC016 06/05 A2959 RMK PCPN 1.5MM PAST HR SLP031
Loading
Personal Weather Stations






























Interactive Weather Map
Tropical Storm Tracking
New forecast layout! Learn more

10-Day Weather Forecast

Advertisements
Track Severe Weather on mobile